createdAt,value
2023-02-05T00:01:31.618Z,57.88
2023-02-05T00:06:33.198Z,60.00
2023-02-05T00:11:34.642Z,60.33
2023-02-05T00:16:36.237Z,60.69
2023-02-05T00:21:37.820Z,60.97
2023-02-05T00:26:40.743Z,60.54
2023-02-05T00:31:42.410Z,61.25
2023-02-05T00:36:43.986Z,61.81
2023-02-05T00:41:45.482Z,61.32
2023-02-05T00:46:47.000Z,60.85
2023-02-05T00:51:48.531Z,61.37
2023-02-05T00:56:49.989Z,60.81
2023-02-05T01:01:51.450Z,61.71
2023-02-05T01:06:55.192Z,61.28
2023-02-05T01:11:56.729Z,60.44
2023-02-05T01:16:58.233Z,60.46
2023-02-05T01:21:59.734Z,60.21
2023-02-05T01:27:01.235Z,60.24
2023-02-05T01:32:02.771Z,60.51
2023-02-05T01:37:04.320Z,61.42
2023-02-05T01:42:17.254Z,60.40
2023-02-05T01:47:20.054Z,60.12
2023-02-05T01:52:21.631Z,60.07
2023-02-05T01:57:24.643Z,60.44
2023-02-05T02:02:26.235Z,60.05
2023-02-05T02:07:27.729Z,59.52
2023-02-05T02:12:33.597Z,60.32
2023-02-05T02:17:40.862Z,59.87
2023-02-05T02:22:54.499Z,60.09
2023-02-05T02:28:18.842Z,60.03
2023-02-05T02:33:39.065Z,59.45
2023-02-05T02:38:45.521Z,59.78
2023-02-05T02:43:54.355Z,60.34
2023-02-05T02:49:01.344Z,60.07
2023-02-05T02:54:09.440Z,59.53
2023-02-05T02:59:16.702Z,59.80
2023-02-05T03:04:25.584Z,59.67
2023-02-05T03:09:32.078Z,59.49
2023-02-05T03:14:33.878Z,59.36
2023-02-05T03:19:36.625Z,58.82
2023-02-05T03:24:38.798Z,58.94
2023-02-05T03:29:41.958Z,58.67
2023-02-05T03:34:56.772Z,58.59
2023-02-05T03:40:38.975Z,57.74
2023-02-05T03:45:48.240Z,58.01
2023-02-05T03:51:16.449Z,57.58
2023-02-05T03:56:32.221Z,56.85
2023-02-05T04:01:34.357Z,57.42
2023-02-05T04:06:36.034Z,58.64
2023-02-05T04:11:37.661Z,58.94
2023-02-05T04:16:40.153Z,58.26
2023-02-05T04:21:42.381Z,58.57
2023-02-05T04:26:44.166Z,59.10
2023-02-05T04:31:45.891Z,58.67
2023-02-05T04:36:48.016Z,58.84
2023-02-05T04:41:49.910Z,59.51
2023-02-05T04:46:51.437Z,59.65
2023-02-05T04:51:52.882Z,59.45
2023-02-05T04:56:54.460Z,58.71
2023-02-05T05:01:56.123Z,58.16
2023-02-05T05:06:57.647Z,58.08
2023-02-05T05:11:59.106Z,57.47
2023-02-05T05:17:00.614Z,58.29
2023-02-05T05:22:02.105Z,59.10
2023-02-05T05:27:03.632Z,58.69
2023-02-05T05:32:05.239Z,58.99
2023-02-05T05:37:06.702Z,59.57
2023-02-05T05:42:11.127Z,59.73
2023-02-05T05:47:12.637Z,60.33
2023-02-05T05:52:14.379Z,60.70
2023-02-05T05:57:15.835Z,61.19
2023-02-05T06:02:17.400Z,60.85
2023-02-05T06:07:18.835Z,60.20
2023-02-05T06:12:20.272Z,61.16
2023-02-05T06:17:21.699Z,60.65
2023-02-05T06:22:23.176Z,60.54
2023-02-05T06:27:24.764Z,61.79
2023-02-05T06:32:26.935Z,61.83
2023-02-05T06:37:45.437Z,62.89
2023-02-05T06:42:48.715Z,62.35
2023-02-05T06:47:50.346Z,62.26
2023-02-05T06:52:52.010Z,61.99
2023-02-05T06:57:53.455Z,62.27
2023-02-05T07:02:55.002Z,62.18
2023-02-05T07:07:56.628Z,61.44
2023-02-05T07:12:58.256Z,60.89
2023-02-05T07:17:59.700Z,61.65
2023-02-05T07:23:01.200Z,61.77
2023-02-05T07:28:06.910Z,60.73
2023-02-05T07:33:08.434Z,61.43
2023-02-05T07:38:09.885Z,61.71
2023-02-05T07:43:11.371Z,60.84
2023-02-05T07:48:12.840Z,60.46
2023-02-05T07:53:14.350Z,59.70
2023-02-05T07:58:15.954Z,60.29
2023-02-05T08:03:17.406Z,59.38
2023-02-05T08:08:18.976Z,58.40
2023-02-05T08:13:20.475Z,57.63
2023-02-05T08:18:22.298Z,57.52
2023-02-05T08:23:24.072Z,57.85
2023-02-05T08:28:27.284Z,57.68
2023-02-05T08:33:28.768Z,57.96
2023-02-05T08:38:30.274Z,58.03
2023-02-05T08:43:31.783Z,57.53
2023-02-05T08:48:33.426Z,57.74
2023-02-05T08:53:34.885Z,56.97
2023-02-05T08:58:37.429Z,56.88
2023-02-05T09:03:38.906Z,56.94
2023-02-05T09:08:40.523Z,56.64
2023-02-05T09:13:42.021Z,57.21
2023-02-05T09:18:43.452Z,56.22
2023-02-05T09:23:44.978Z,56.60
2023-02-05T09:28:46.472Z,56.71
2023-02-05T09:33:48.013Z,54.80
2023-02-05T09:38:49.888Z,54.82
2023-02-05T09:43:57.042Z,54.40
2023-02-05T09:49:07.694Z,53.92
2023-02-05T09:54:22.565Z,54.04
2023-02-05T09:59:26.223Z,54.39
2023-02-05T10:04:28.933Z,54.32
2023-02-05T10:09:51.972Z,53.71
2023-02-05T10:15:32.842Z,53.65
2023-02-05T10:21:04.545Z,54.27
2023-02-05T10:26:16.715Z,53.78
2023-02-05T10:31:37.188Z,52.87
2023-02-05T10:36:38.799Z,52.76
2023-02-05T10:41:47.145Z,52.69
2023-02-05T10:46:53.355Z,51.58
2023-02-05T10:51:54.800Z,52.49
2023-02-05T10:56:58.378Z,51.73
2023-02-05T11:02:06.029Z,51.85
2023-02-05T11:07:13.039Z,53.39
2023-02-05T11:12:22.731Z,52.53
2023-02-05T11:17:28.489Z,51.35
2023-02-05T11:22:35.843Z,51.20
2023-02-05T11:27:37.694Z,50.62
2023-02-05T11:32:39.197Z,49.69
2023-02-05T11:37:40.782Z,50.23
2023-02-05T11:42:48.526Z,50.14
2023-02-05T11:47:50.119Z,48.57
2023-02-05T11:52:53.357Z,49.63
2023-02-05T11:58:01.373Z,50.35
2023-02-05T12:03:24.185Z,52.37
2023-02-05T12:08:45.112Z,53.39
2023-02-05T12:13:52.610Z,53.38
2023-02-05T12:19:11.602Z,53.82
2023-02-05T12:24:22.278Z,53.73
2023-02-05T12:29:42.994Z,54.08
2023-02-05T12:35:06.260Z,54.10
2023-02-05T12:40:26.376Z,54.33
2023-02-05T12:45:36.470Z,54.85
2023-02-05T12:51:11.827Z,55.69
2023-02-05T12:56:41.836Z,55.43
2023-02-05T13:01:50.995Z,55.72
2023-02-05T13:06:57.802Z,55.14
2023-02-05T13:12:08.400Z,56.46
2023-02-05T13:17:27.233Z,55.84
2023-02-05T13:22:33.971Z,56.11
2023-02-05T13:27:45.235Z,55.17
2023-02-05T13:32:51.668Z,55.37
2023-02-05T13:38:10.085Z,55.31
2023-02-05T13:43:42.374Z,55.99
2023-02-05T13:49:09.747Z,56.02
2023-02-05T13:54:17.991Z,55.15
2023-02-05T13:59:19.466Z,55.57
2023-02-05T14:04:26.748Z,55.89
2023-02-05T14:09:40.896Z,56.97
2023-02-05T14:14:42.371Z,56.18
2023-02-05T14:19:46.807Z,55.23
2023-02-05T14:24:49.984Z,55.48
2023-02-05T14:29:52.518Z,55.61
2023-02-05T14:35:21.620Z,56.42
2023-02-05T14:40:30.838Z,55.62
2023-02-05T14:45:32.730Z,55.50
2023-02-05T14:50:34.382Z,55.37
2023-02-05T14:55:39.790Z,55.91
2023-02-05T15:00:41.968Z,55.91
2023-02-05T15:05:46.489Z,55.96
2023-02-05T15:11:09.065Z,56.75
2023-02-05T15:16:13.547Z,56.15
2023-02-05T15:21:26.548Z,56.44
2023-02-05T15:26:46.440Z,56.52
2023-02-05T15:31:49.310Z,56.55
2023-02-05T15:37:16.449Z,56.83
2023-02-05T15:42:20.762Z,56.76
2023-02-05T15:47:24.914Z,56.37
2023-02-05T15:52:28.512Z,56.86
2023-02-05T15:57:31.673Z,56.71
2023-02-05T16:02:34.415Z,56.64
2023-02-05T16:07:41.017Z,56.77
2023-02-05T16:13:01.469Z,56.68
2023-02-05T16:18:06.522Z,56.87
2023-02-05T16:23:17.013Z,57.40
2023-02-05T16:28:37.841Z,57.08
2023-02-05T16:33:45.627Z,56.41
2023-02-05T16:38:52.246Z,56.40
2023-02-05T16:43:55.557Z,56.55
2023-02-05T16:49:23.928Z,57.46
2023-02-05T16:54:29.381Z,57.04
2023-02-05T16:59:45.058Z,57.38
2023-02-05T17:04:51.935Z,56.77
2023-02-05T17:10:05.642Z,57.90
2023-02-05T17:15:13.076Z,58.67
2023-02-05T17:20:19.971Z,58.63
2023-02-05T17:25:21.495Z,57.98
2023-02-05T17:30:23.091Z,58.05
2023-02-05T17:35:24.717Z,58.44
2023-02-05T17:40:26.290Z,58.38
2023-02-05T17:45:32.511Z,58.31
2023-02-05T17:50:34.995Z,58.76
2023-02-05T17:55:36.632Z,58.99
2023-02-05T18:00:38.111Z,59.06
2023-02-05T18:05:39.610Z,58.97
2023-02-05T18:10:41.080Z,59.35
2023-02-05T18:15:43.618Z,58.85
2023-02-05T18:20:45.125Z,58.70
2023-02-05T18:25:49.342Z,58.02
2023-02-05T18:31:02.773Z,57.97
2023-02-05T18:36:07.396Z,57.73
2023-02-05T18:41:14.864Z,57.85
2023-02-05T18:46:18.107Z,57.34
2023-02-05T18:51:21.716Z,57.27
2023-02-05T18:56:27.819Z,57.53
2023-02-05T19:01:30.853Z,57.07
2023-02-05T19:06:33.153Z,57.38
2023-02-05T19:11:34.733Z,57.99
2023-02-05T19:16:36.640Z,57.63
2023-02-05T19:21:38.122Z,58.44
2023-02-05T19:26:41.906Z,58.73
2023-02-05T19:31:43.924Z,57.59
2023-02-05T19:36:45.672Z,58.55
2023-02-05T19:41:47.330Z,57.79
2023-02-05T19:46:48.927Z,56.91
2023-02-05T19:51:53.562Z,58.00
2023-02-05T19:56:55.108Z,58.03
2023-02-05T20:01:56.601Z,58.68
2023-02-05T20:06:59.734Z,58.60
2023-02-05T20:12:01.576Z,59.20
2023-02-05T20:17:03.007Z,59.69
2023-02-05T20:22:04.443Z,60.27
2023-02-05T20:27:05.956Z,60.50
2023-02-05T20:32:07.399Z,59.46
2023-02-05T20:37:08.836Z,58.62
2023-02-05T20:42:11.128Z,59.75
2023-02-05T20:47:14.480Z,59.51
2023-02-05T20:52:15.937Z,59.89
2023-02-05T20:57:19.147Z,59.50
2023-02-05T21:02:21.807Z,59.13
2023-02-05T21:07:27.796Z,59.38
2023-02-05T21:12:29.426Z,60.50
2023-02-05T21:17:30.983Z,60.38
2023-02-05T21:22:32.485Z,60.72
2023-02-05T21:27:33.944Z,59.80
2023-02-05T21:32:35.351Z,60.15
2023-02-05T21:37:38.560Z,60.34
2023-02-05T21:42:39.999Z,60.07
2023-02-05T21:47:41.410Z,60.29
2023-02-05T21:52:42.868Z,59.85
2023-02-05T21:57:44.334Z,60.55
2023-02-05T22:02:45.754Z,60.58
2023-02-05T22:07:47.183Z,59.94
2023-02-05T22:12:48.641Z,60.49
2023-02-05T22:17:50.152Z,60.47
2023-02-05T22:22:51.638Z,59.84
2023-02-05T22:27:53.231Z,60.08
2023-02-05T22:32:54.795Z,60.98
2023-02-05T22:37:56.239Z,60.27
2023-02-05T22:42:57.660Z,60.73
2023-02-05T22:47:59.133Z,60.37
2023-02-05T22:53:00.571Z,60.36
2023-02-05T22:58:02.283Z,59.70
2023-02-05T23:03:04.237Z,60.19
2023-02-05T23:08:05.714Z,59.93
2023-02-05T23:13:07.265Z,59.57
2023-02-05T23:18:08.787Z,59.97
2023-02-05T23:23:10.276Z,59.30
2023-02-05T23:28:11.796Z,59.24
2023-02-05T23:33:13.265Z,59.01
2023-02-05T23:38:14.695Z,59.57
2023-02-05T23:43:16.184Z,59.19
2023-02-05T23:48:17.887Z,58.94
2023-02-05T23:53:20.208Z,59.02
2023-02-05T23:58:22.692Z,58.22
